Active alerts

Gallatin County, MT
  Details for Gallatin County, MT Winter Storm Warning
Gallatin County, MT
  Details for Gallatin County, MT Hydrologic Outlook

Thunder radar more information blitzortung!


Rain radar more information rain snow radar



Nearby METAR Reports

   
KNUQ - Mountain View, CA
Updated: Aug 22 2021 4:40 am
NOT Current
Overcast  
Overcast  
   Wind: SSE 6.9 mph
Wind: SSE 6.9 mph
Temperature: 60.8°F
Dew Point: 53.6°F
Humidity: 77%
Barometer: 29.82 inHg
Clouds: Overcast
Visibility: 10 mi
Cloud details: Overcast 1800 ft
KNUQ 221140Z AUTO 16006KT 10SM OVC018 16/12 A2982 RMK AO2
KSFO - San Francisco, CA
Updated: Sep 22 2021 1:56 pm
Few Clouds  
Few Clouds  
   Wind: WNW 24.2 mph
Wind: WNW 24.2 mph
Temperature: 71.6°F
Dew Point: 51.8°F
Humidity: 50%
Barometer: 30.07 inHg
Clouds: Few Clouds
Visibility: 10 mi
Cloud details: Few Clouds 20000 ft
KSFO 222056Z 29021KT 10SM FEW200 22/11 A3007 RMK AO2 PK WND 30026/2011 SLP183 T02220106 56016
KSJC - San Jose, CA
Updated: Sep 22 2021 1:53 pm
Partly Cloudy  
Partly Cloudy  
   Wind: NW 12.7 mph
Wind: NW 12.7 mph
Temperature: 86°F
Dew Point: 44.6°F
Humidity: 24%
Barometer: 30.06 inHg
Clouds: Partly Cloudy
Visibility: 10 mi
Cloud details: Few Clouds 8000 ft,
Partly Cloudy 10000 ft
KSJC 222053Z 31011KT 10SM FEW080 SCT100 30/07 A3006 RMK AO2 SLP177 T03000072 58020 $
KOAK - Oakland, CA
Updated: Sep 22 2021 1:53 pm
Few Clouds  
Few Clouds  
   Wind: WNW 17.3 mph
Wind: WNW 17.3 mph
Temperature: 71.6°F
Dew Point: 55.4°F
Humidity: 57%
Barometer: 30.09 inHg
Clouds: Few Clouds
Visibility: 10 mi
Cloud details: Few Clouds 800 ft,
Few Clouds 20000 ft
KOAK 222053Z 29015KT 10SM FEW008 FEW200 22/13 A3009 RMK AO2 SLP188 T02220133 56014
KMRY - Monterey, CA
Updated: Sep 22 2021 1:54 pm
Clear  
Clear  
   Wind: North 4.6 mph
Wind: North 4.6 mph
Temperature: 71.6°F
Dew Point: 55.4°F
Humidity: 57%
Barometer: 30.1 inHg
Clouds: Clear
Visibility: 10 mi
Cloud details: Clear ft
KMRY 222054Z 01004KT 10SM CLR 22/13 A3010 RMK AO2 SLP203 T02170133 58017
KWYS - West Yellowstone, MT
Updated: Sep 22 2021 1:55 pm
Clear  
Clear  
   Wind: SSW 15 mph<br />Gust to 15 mph
Wind: SSW 15 mph
Gust to 15 mph
Temperature: 64.4°F
Dew Point: 23°F
Humidity: 21%
Barometer: 30.26 inHg
Clouds: Clear
Visibility: 10 mi
Cloud details: Clear ft
KWYS 222055Z AUTO 20013G24KT 170V230 10SM CLR 18/M05 A3026 RMK AO2
KDCA - Washington, DC
Updated: Sep 22 2021 2:14 pm
Light Rain, Overcast  
Light Rain, Overcast  
   Wind: South 18.4 mph<br />Gust to 18.4 mph
Wind: South 18.4 mph
Gust to 18.4 mph
Temperature: 77°F
Dew Point: 71.6°F
Humidity: 83%
Barometer: 29.88 inHg
Clouds: Overcast
Visibility: 5 mi
Cloud details: Partly Cloudy 2700 ft,
Mostly Cloudy 5500 ft,
Overcast 6500 ft
KDCA 222114Z 18016G26KT 5SM -RA SCT027 BKN055 OVC065 25/22 A2988 RMK AO2 PK WND 18026/2114 P0004 T02500217
KIAD - Washington Dulles, VA
Updated: Sep 22 2021 1:52 pm
Light Rain, Overcast  
Light Rain, Overcast  
   Wind: SE 10.4 mph<br />Gust to 10.4 mph
Wind: SE 10.4 mph
Gust to 10.4 mph
Temperature: 75.2°F
Dew Point: 68°F
Humidity: 78%
Barometer: 29.84 inHg
Clouds: Overcast
Visibility: 10 mi
Cloud details: Few Clouds 4000 ft,
Mostly Cloudy 7500 ft,
Mostly Cloudy 10000 ft,
Mostly Cloudy 15000 ft,
Overcast 20000 ft
KIAD 222052Z 14009G17KT 10SM -RA FEW040 BKN075 BKN100 BKN150 OVC200 24/20 A2984 RMK AO2 SLP103 CB DSNT SE-S MOV N P0000 60000 T02440200 56018
KMIA - Miami Beach, FL
Updated: Sep 22 2021 2:05 pm
Overcast  
Overcast  
   Wind: varies 5.8 mph
Wind: varies 5.8 mph
Temperature: 77°F
Dew Point: 73.4°F
Humidity: 89%
Barometer: 29.92 inHg
Clouds: Overcast
Visibility: 10 mi
Cloud details: Few Clouds 2000 ft,
Few Clouds 7500 ft,
Mostly Cloudy 11000 ft,
Overcast 25000 ft
KMIA 222105Z VRB05KT 10SM FEW020 FEW075 BKN110 OVC250 25/23 A2992 RMK AO2 LTG DSNT N AND NE CB DSNT NW-NE T02500228 $

Script developed by  Saratoga-weather.org Adapted for the template by  Weerstation Leuven

You find our weather info also at:

Weather Underground

Citizen Weather Observer Program (CWOP)

Equipment we use:

Weather-station
Ambient WS-1400-IP

Weather-program
Meteobridge

Weather-server
TP-LINK TL-MR3020

Ambient WS-1400-IP

Meteobridge

TP-LINK TL-MR3020